createdAt,value
2022-12-18T00:01:25.263Z,-1.79
2022-12-18T00:03:53.176Z,-1.81
2022-12-18T00:06:20.717Z,-1.83
2022-12-18T00:08:47.243Z,-1.87
2022-12-18T00:11:19.611Z,-1.86
2022-12-18T00:13:46.377Z,-1.83
2022-12-18T00:16:15.838Z,-1.90
2022-12-18T00:18:43.095Z,-1.86
2022-12-18T00:21:12.392Z,-1.86
2022-12-18T00:23:40.850Z,-1.86
2022-12-18T00:26:12.921Z,-1.87
2022-12-18T00:28:42.812Z,-1.88
2022-12-18T00:31:12.898Z,-1.86
2022-12-18T00:33:39.911Z,-1.88
2022-12-18T00:36:15.828Z,-1.90
2022-12-18T00:38:42.832Z,-1.90
2022-12-18T00:41:12.195Z,-1.97
2022-12-18T00:43:39.972Z,-1.94
2022-12-18T00:46:07.207Z,-1.94
2022-12-18T00:48:33.845Z,-1.94
2022-12-18T00:51:00.292Z,-1.95
2022-12-18T00:53:26.788Z,-1.98
2022-12-18T00:55:53.215Z,-2.00
2022-12-18T00:58:19.745Z,-2.03
2022-12-18T01:00:46.230Z,-2.06
2022-12-18T01:03:15.983Z,-2.10
2022-12-18T01:05:44.357Z,-2.12
2022-12-18T01:08:11.810Z,-2.18
2022-12-18T01:10:41.338Z,-2.17
2022-12-18T01:13:07.833Z,-2.17
2022-12-18T01:15:34.230Z,-2.17
2022-12-18T01:18:00.686Z,-2.17
2022-12-18T01:20:27.218Z,-2.12
2022-12-18T01:22:53.704Z,-2.07
2022-12-18T01:25:20.142Z,-2.02
2022-12-18T01:27:46.598Z,-1.96
2022-12-18T01:30:13.165Z,-1.90
2022-12-18T01:32:39.661Z,-1.84
2022-12-18T01:35:06.896Z,-1.80
2022-12-18T01:37:33.449Z,-1.74
2022-12-18T01:39:59.909Z,-1.69
2022-12-18T01:42:26.364Z,-1.68
2022-12-18T01:45:00.523Z,-1.67
2022-12-18T01:47:29.579Z,-1.58
2022-12-18T01:49:57.861Z,-1.54
2022-12-18T01:52:27.020Z,-1.50
2022-12-18T01:54:54.096Z,-1.47
2022-12-18T01:57:21.494Z,-1.44
2022-12-18T01:59:52.753Z,-1.43
2022-12-18T02:02:20.702Z,-1.42
2022-12-18T02:04:49.547Z,-1.42
2022-12-18T02:07:24.412Z,-1.42
2022-12-18T02:10:13.709Z,-1.42
2022-12-18T02:12:53.595Z,-1.49
2022-12-18T02:15:31.968Z,-1.44
2022-12-18T02:18:12.285Z,-1.47
2022-12-18T02:20:48.855Z,-1.54
2022-12-18T02:23:43.945Z,-1.49
2022-12-18T02:26:19.471Z,-1.51
2022-12-18T02:29:01.358Z,-1.51
2022-12-18T02:31:35.433Z,-1.52
2022-12-18T02:34:05.746Z,-1.53
2022-12-18T02:36:41.258Z,-1.54
2022-12-18T02:39:11.459Z,-1.57
2022-12-18T02:41:43.568Z,-1.57
2022-12-18T02:44:13.185Z,-1.63
2022-12-18T02:46:53.451Z,-1.72
2022-12-18T02:49:40.998Z,-1.76
2022-12-18T02:52:54.591Z,-1.74
2022-12-18T02:55:48.226Z,-1.78
2022-12-18T02:58:27.355Z,-1.80
2022-12-18T03:01:25.438Z,-1.83
2022-12-18T03:03:58.640Z,-1.84
2022-12-18T03:06:30.896Z,-1.91
2022-12-18T03:09:05.095Z,-1.86
2022-12-18T03:11:35.230Z,-1.87
2022-12-18T03:14:02.847Z,-1.88
2022-12-18T03:16:32.082Z,-1.90
2022-12-18T03:19:09.898Z,-1.89
2022-12-18T03:21:48.768Z,-1.97
2022-12-18T03:24:19.837Z,-1.93
2022-12-18T03:26:51.711Z,-2.02
2022-12-18T03:29:30.749Z,-1.99
2022-12-18T03:32:04.508Z,-2.03
2022-12-18T03:34:36.303Z,-2.12
2022-12-18T03:37:06.885Z,-2.09
2022-12-18T03:39:35.632Z,-2.12
2022-12-18T03:42:16.413Z,-2.21
2022-12-18T03:45:10.691Z,-2.20
2022-12-18T03:48:02.439Z,-2.25
2022-12-18T03:50:39.283Z,-2.28
2022-12-18T03:53:15.748Z,-2.30
2022-12-18T03:55:46.342Z,-2.31
2022-12-18T03:58:18.507Z,-2.32
2022-12-18T04:00:58.780Z,-2.34
2022-12-18T04:03:26.936Z,-2.33
2022-12-18T04:05:56.246Z,-2.34
2022-12-18T04:08:24.817Z,-2.35
2022-12-18T04:11:00.696Z,-2.35
2022-12-18T04:13:34.890Z,-2.39
2022-12-18T04:16:03.676Z,-2.29
2022-12-18T04:18:30.735Z,-2.26
2022-12-18T04:20:57.794Z,-2.26
2022-12-18T04:23:25.063Z,-2.22
2022-12-18T04:25:52.114Z,-2.19
2022-12-18T04:28:31.197Z,-2.18
2022-12-18T04:30:57.990Z,-2.16
2022-12-18T04:33:24.547Z,-2.13
2022-12-18T04:35:51.103Z,-2.10
2022-12-18T04:38:17.844Z,-2.04
2022-12-18T04:40:45.363Z,-2.00
2022-12-18T04:43:20.706Z,-1.90
2022-12-18T04:45:47.179Z,-1.84
2022-12-18T04:48:13.589Z,-1.79
2022-12-18T04:50:40.089Z,-1.71
2022-12-18T04:53:07.449Z,-1.66
2022-12-18T04:55:33.941Z,-1.61
2022-12-18T04:58:00.341Z,-1.55
2022-12-18T05:00:26.931Z,-1.49
2022-12-18T05:02:54.138Z,-1.47
2022-12-18T05:05:20.682Z,-1.42
2022-12-18T05:07:47.136Z,-1.39
2022-12-18T05:10:13.584Z,-1.36
2022-12-18T05:12:40.049Z,-1.30
2022-12-18T05:15:07.224Z,-1.27
2022-12-18T05:17:33.635Z,-1.26
2022-12-18T05:20:00.107Z,-1.21
2022-12-18T05:22:26.536Z,-1.18
2022-12-18T05:24:52.986Z,-1.15
2022-12-18T05:27:19.447Z,-1.12
2022-12-18T05:29:45.920Z,-1.10
2022-12-18T05:32:12.364Z,-1.09
2022-12-18T05:34:38.783Z,-1.05
2022-12-18T05:37:05.251Z,-1.04
2022-12-18T05:39:31.684Z,-1.01
2022-12-18T05:41:58.201Z,-0.99
2022-12-18T05:44:24.782Z,-0.97
2022-12-18T05:46:51.263Z,-0.95
2022-12-18T05:49:17.698Z,-0.93
2022-12-18T05:51:44.128Z,-0.92
2022-12-18T05:54:10.534Z,-0.90
2022-12-18T05:56:36.952Z,-0.89
2022-12-18T05:59:03.788Z,-0.87
2022-12-18T06:01:30.374Z,-0.85
2022-12-18T06:03:57.599Z,-0.84
2022-12-18T06:06:26.885Z,-0.82
2022-12-18T06:08:54.535Z,-0.82
2022-12-18T06:11:27.051Z,-0.80
2022-12-18T06:13:58.567Z,-0.87
2022-12-18T06:16:25.224Z,-0.80
2022-12-18T06:18:51.641Z,-0.79
2022-12-18T06:21:18.214Z,-0.78
2022-12-18T06:23:44.652Z,-0.78
2022-12-18T06:26:13.028Z,-0.80
2022-12-18T06:28:39.638Z,-0.78
2022-12-18T06:31:07.316Z,-0.74
2022-12-18T06:33:35.015Z,-0.73
2022-12-18T06:36:04.092Z,-0.77
2022-12-18T06:38:31.809Z,-0.68
2022-12-18T06:40:58.276Z,-0.66
2022-12-18T06:43:24.987Z,-0.63
2022-12-18T06:45:51.476Z,-0.62
2022-12-18T06:48:17.968Z,-0.60
2022-12-18T06:50:44.420Z,-0.59
2022-12-18T06:53:10.850Z,-0.56
2022-12-18T06:55:37.317Z,-0.54
2022-12-18T06:58:04.433Z,-0.50
2022-12-18T07:00:30.957Z,-0.49
2022-12-18T07:02:57.407Z,-0.47
2022-12-18T07:05:23.898Z,-0.47
2022-12-18T07:07:50.363Z,-0.41
2022-12-18T07:10:16.941Z,-0.45
2022-12-18T07:12:43.400Z,-0.36
2022-12-18T07:15:10.279Z,-0.34
2022-12-18T07:17:36.699Z,-0.32
2022-12-18T07:20:03.362Z,-0.31
2022-12-18T07:22:29.841Z,-0.29
2022-12-18T07:24:56.372Z,-0.29
2022-12-18T07:27:23.541Z,-0.27
2022-12-18T07:29:50.062Z,-0.26
2022-12-18T07:32:16.764Z,-0.24
2022-12-18T07:34:43.290Z,-0.25
2022-12-18T07:37:09.720Z,-0.24
2022-12-18T07:39:36.194Z,-0.23
2022-12-18T07:42:02.611Z,-0.21
2022-12-18T07:44:29.104Z,-0.21
2022-12-18T07:46:55.562Z,-0.20
2022-12-18T07:49:22.007Z,-0.20
2022-12-18T07:51:48.416Z,-0.19
2022-12-18T07:54:14.897Z,-0.18
2022-12-18T07:56:41.347Z,-0.16
2022-12-18T07:59:07.990Z,-0.16
2022-12-18T08:01:34.923Z,-0.16
2022-12-18T08:04:01.477Z,-0.14
2022-12-18T08:06:27.886Z,-0.12
2022-12-18T08:08:55.480Z,-0.10
2022-12-18T08:11:23.618Z,-0.07
2022-12-18T08:13:50.105Z,-0.06
2022-12-18T08:16:16.842Z,-0.05
2022-12-18T08:18:43.441Z,-0.03
2022-12-18T08:21:11.751Z,-0.03
2022-12-18T08:23:42.585Z,0.02
2022-12-18T08:26:10.465Z,0.05
2022-12-18T08:28:36.993Z,0.07
2022-12-18T08:31:03.652Z,0.07
2022-12-18T08:33:30.394Z,0.09
2022-12-18T08:35:56.907Z,0.13
2022-12-18T08:38:23.328Z,0.14
2022-12-18T08:40:49.780Z,0.17
2022-12-18T08:43:16.231Z,0.19
2022-12-18T08:45:42.740Z,0.22
2022-12-18T08:48:09.185Z,0.25
2022-12-18T08:50:35.684Z,0.27
2022-12-18T08:53:02.121Z,0.30
2022-12-18T08:55:28.578Z,0.31
2022-12-18T08:57:54.996Z,0.34
2022-12-18T09:00:21.494Z,0.36
2022-12-18T09:02:48.086Z,0.40
2022-12-18T09:05:15.038Z,0.42
2022-12-18T09:07:41.466Z,0.44
2022-12-18T09:10:08.267Z,0.50
2022-12-18T09:12:34.715Z,0.50
2022-12-18T09:15:01.175Z,0.53
2022-12-18T09:17:27.605Z,0.55
2022-12-18T09:19:54.091Z,0.57
2022-12-18T09:22:20.516Z,0.61
2022-12-18T09:24:46.955Z,0.63
2022-12-18T09:27:13.382Z,0.67
2022-12-18T09:29:39.913Z,0.69
2022-12-18T09:32:06.369Z,0.71
2022-12-18T09:34:32.878Z,0.73
2022-12-18T09:36:59.328Z,0.76
2022-12-18T09:39:25.760Z,0.75
2022-12-18T09:41:55.539Z,0.79
2022-12-18T09:44:33.701Z,0.80
2022-12-18T09:47:15.696Z,0.84
2022-12-18T09:49:47.897Z,0.86
2022-12-18T09:52:26.180Z,0.90
2022-12-18T09:55:01.805Z,0.92
2022-12-18T09:57:34.220Z,0.95
2022-12-18T10:00:12.415Z,0.90
2022-12-18T10:02:38.987Z,1.01
2022-12-18T10:05:08.495Z,1.02
2022-12-18T10:08:00.155Z,1.06
2022-12-18T10:10:49.608Z,1.09
2022-12-18T10:13:47.604Z,1.13
2022-12-18T10:16:20.363Z,1.16
2022-12-18T10:19:05.239Z,1.19
2022-12-18T10:22:13.144Z,1.22
2022-12-18T10:25:07.705Z,1.26
2022-12-18T10:27:34.428Z,1.29
2022-12-18T10:30:09.977Z,1.24
2022-12-18T10:32:36.447Z,1.35
2022-12-18T10:35:02.886Z,1.35
2022-12-18T10:37:30.701Z,1.34
2022-12-18T10:40:22.022Z,1.42
2022-12-18T10:43:12.743Z,1.41
2022-12-18T10:45:39.455Z,1.50
2022-12-18T10:48:18.170Z,1.53
2022-12-18T10:51:10.486Z,1.52
2022-12-18T10:53:37.625Z,1.56
2022-12-18T10:56:06.224Z,1.64
2022-12-18T10:58:38.334Z,1.68
2022-12-18T11:01:17.115Z,1.71
2022-12-18T11:03:46.224Z,1.69
2022-12-18T11:06:19.784Z,1.76
2022-12-18T11:09:00.019Z,1.80
2022-12-18T11:11:26.739Z,1.85
2022-12-18T11:13:58.575Z,1.79
2022-12-18T11:16:25.287Z,1.92
2022-12-18T11:18:51.898Z,1.96
2022-12-18T11:21:18.472Z,1.97
2022-12-18T11:23:51.510Z,1.93
2022-12-18T11:26:18.393Z,1.99
2022-12-18T11:29:09.427Z,1.94
2022-12-18T11:31:35.949Z,1.99
2022-12-18T11:34:28.593Z,1.91
2022-12-18T11:36:58.533Z,1.98
2022-12-18T11:39:38.592Z,2.00
2022-12-18T11:42:46.337Z,2.01
2022-12-18T11:45:13.049Z,2.01
2022-12-18T11:47:53.239Z,1.99
2022-12-18T11:50:24.999Z,1.95
2022-12-18T11:52:56.552Z,2.01
2022-12-18T11:55:31.146Z,1.96
2022-12-18T11:58:09.941Z,2.05
2022-12-18T12:00:48.178Z,2.01
2022-12-18T12:03:20.369Z,2.09
2022-12-18T12:05:54.193Z,2.12
2022-12-18T12:08:42.882Z,2.13
2022-12-18T12:11:21.841Z,2.07
2022-12-18T12:14:06.161Z,2.10
2022-12-18T12:16:44.219Z,2.13
2022-12-18T12:19:28.832Z,2.14
2022-12-18T12:22:11.796Z,2.12
2022-12-18T12:24:57.010Z,2.12
2022-12-18T12:27:49.158Z,2.07
2022-12-18T12:30:36.069Z,2.11
2022-12-18T12:33:17.815Z,2.14
2022-12-18T12:35:53.297Z,2.16
2022-12-18T12:38:28.057Z,2.20
2022-12-18T12:41:06.397Z,2.22
2022-12-18T12:43:50.815Z,2.23
2022-12-18T12:46:21.236Z,2.17
2022-12-18T12:48:52.934Z,2.21
2022-12-18T12:51:35.518Z,2.21
2022-12-18T12:54:06.177Z,2.15
2022-12-18T12:56:49.472Z,2.20
2022-12-18T13:00:01.617Z,2.16
2022-12-18T13:02:31.196Z,2.16
2022-12-18T13:05:13.131Z,2.15
2022-12-18T13:07:59.304Z,2.15
2022-12-18T13:10:27.923Z,2.18
2022-12-18T13:13:17.164Z,2.16
2022-12-18T13:16:10.347Z,2.16
2022-12-18T13:18:38.385Z,2.17
2022-12-18T13:21:23.663Z,2.10
2022-12-18T13:23:50.740Z,2.12
2022-12-18T13:26:17.084Z,2.13
2022-12-18T13:28:46.223Z,2.12
2022-12-18T13:31:14.169Z,2.09
2022-12-18T13:34:23.908Z,2.10
2022-12-18T13:36:34.332Z,2.11
2022-12-18T13:39:26.538Z,2.08
2022-12-18T13:42:05.495Z,2.11
2022-12-18T13:44:40.641Z,2.04
2022-12-18T13:47:37.218Z,2.09
2022-12-18T13:50:40.070Z,2.04
2022-12-18T13:53:06.560Z,2.08
2022-12-18T13:55:33.206Z,2.06
2022-12-18T13:58:13.275Z,2.03
2022-12-18T14:00:44.095Z,2.03
2022-12-18T14:03:22.408Z,1.96
2022-12-18T14:06:06.748Z,1.99
2022-12-18T14:08:38.912Z,1.99
2022-12-18T14:11:07.479Z,1.89
2022-12-18T14:13:42.085Z,1.94
2022-12-18T14:16:14.963Z,1.93
2022-12-18T14:18:53.718Z,1.91
2022-12-18T14:21:29.173Z,1.88
2022-12-18T14:24:21.688Z,1.84
2022-12-18T14:26:50.634Z,1.83
2022-12-18T14:29:31.357Z,1.81
2022-12-18T14:32:17.903Z,1.78
2022-12-18T14:34:52.742Z,1.76
2022-12-18T14:37:23.796Z,1.74
2022-12-18T14:40:03.191Z,1.74
2022-12-18T14:42:33.698Z,1.70
2022-12-18T14:45:40.923Z,1.70
2022-12-18T14:48:19.689Z,1.69
2022-12-18T14:50:59.344Z,1.68
2022-12-18T14:53:59.212Z,1.67
2022-12-18T14:56:36.997Z,1.68
2022-12-18T14:59:25.107Z,1.66
2022-12-18T15:02:24.095Z,1.71
2022-12-18T15:05:18.850Z,1.67
2022-12-18T15:07:51.234Z,1.64
2022-12-18T15:10:21.027Z,1.68
2022-12-18T15:12:58.253Z,1.73
2022-12-18T15:15:33.806Z,1.73
2022-12-18T15:18:09.058Z,1.73
2022-12-18T15:20:50.836Z,1.73
2022-12-18T15:23:22.225Z,1.73
2022-12-18T15:26:09.888Z,1.72
2022-12-18T15:28:46.139Z,1.65
2022-12-18T15:31:12.610Z,1.73
2022-12-18T15:33:44.813Z,1.65
2022-12-18T15:36:14.452Z,1.67
2022-12-18T15:38:41.271Z,1.73
2022-12-18T15:41:14.568Z,1.73
2022-12-18T15:43:41.909Z,1.75
2022-12-18T15:46:17.021Z,1.74
2022-12-18T15:48:54.402Z,1.69
2022-12-18T15:51:36.202Z,1.75
2022-12-18T15:54:05.637Z,1.68
2022-12-18T15:56:32.735Z,1.76
2022-12-18T15:59:00.646Z,1.76
2022-12-18T16:01:30.620Z,1.78
2022-12-18T16:03:58.099Z,1.78
2022-12-18T16:06:24.644Z,1.79
2022-12-18T16:08:51.133Z,1.79
2022-12-18T16:11:28.156Z,1.80
2022-12-18T16:13:54.603Z,1.77
2022-12-18T16:16:21.035Z,1.81
2022-12-18T16:18:47.520Z,1.82
2022-12-18T16:21:13.997Z,1.82
2022-12-18T16:23:40.792Z,1.81
2022-12-18T16:26:08.787Z,1.84
2022-12-18T16:28:35.283Z,1.85
2022-12-18T16:31:01.808Z,1.86
2022-12-18T16:33:28.266Z,1.87
2022-12-18T16:35:54.686Z,1.87
2022-12-18T16:38:21.111Z,1.89
2022-12-18T16:40:47.561Z,1.90
2022-12-18T16:43:14.046Z,1.92
2022-12-18T16:45:41.663Z,1.92
2022-12-18T16:48:08.115Z,1.94
2022-12-18T16:50:37.714Z,1.92
2022-12-18T16:53:04.158Z,1.96
2022-12-18T16:55:30.562Z,1.99
2022-12-18T16:57:57.031Z,2.00
2022-12-18T17:00:23.466Z,2.00
2022-12-18T17:02:50.112Z,2.03
2022-12-18T17:05:16.775Z,2.02
2022-12-18T17:07:43.216Z,2.04
2022-12-18T17:10:09.902Z,2.07
2022-12-18T17:12:36.563Z,2.08
2022-12-18T17:15:03.163Z,2.09
2022-12-18T17:17:29.579Z,2.09
2022-12-18T17:19:56.033Z,2.11
2022-12-18T17:22:22.553Z,2.11
2022-12-18T17:24:49.023Z,2.12
2022-12-18T17:27:15.577Z,2.15
2022-12-18T17:29:47.407Z,2.13
2022-12-18T17:32:14.717Z,2.14
2022-12-18T17:34:41.219Z,2.15
2022-12-18T17:37:08.046Z,2.17
2022-12-18T17:39:34.484Z,2.19
2022-12-18T17:42:01.055Z,2.20
2022-12-18T17:44:27.480Z,2.22
2022-12-18T17:46:54.020Z,2.16
2022-12-18T17:49:21.065Z,2.24
2022-12-18T17:51:47.607Z,2.28
2022-12-18T17:54:14.121Z,2.28
2022-12-18T17:56:40.588Z,2.33
2022-12-18T17:59:07.608Z,2.34
2022-12-18T18:01:36.436Z,2.32
2022-12-18T18:04:05.333Z,2.36
2022-12-18T18:06:31.831Z,2.36
2022-12-18T18:09:00.972Z,2.37
2022-12-18T18:11:27.714Z,2.38
2022-12-18T18:13:54.442Z,2.41
2022-12-18T18:16:20.895Z,2.43
2022-12-18T18:18:47.413Z,2.46
2022-12-18T18:21:13.827Z,2.51
2022-12-18T18:23:42.899Z,2.54
2022-12-18T18:26:11.613Z,2.57
2022-12-18T18:28:38.155Z,2.59
2022-12-18T18:31:06.201Z,2.64
2022-12-18T18:33:33.527Z,2.70
2022-12-18T18:36:00.441Z,2.69
2022-12-18T18:38:27.281Z,2.73
2022-12-18T18:41:04.709Z,2.74
2022-12-18T18:43:31.469Z,2.79
2022-12-18T18:46:03.316Z,2.78
2022-12-18T18:48:33.811Z,2.74
2022-12-18T18:51:07.305Z,2.77
2022-12-18T18:53:38.838Z,2.85
2022-12-18T18:56:45.507Z,2.84
2022-12-18T18:58:55.984Z,2.92
2022-12-18T19:01:23.477Z,2.91
2022-12-18T19:03:50.907Z,2.92
2022-12-18T19:06:20.214Z,2.97
2022-12-18T19:08:47.733Z,2.98
2022-12-18T19:11:14.798Z,3.01
2022-12-18T19:13:41.588Z,3.02
2022-12-18T19:16:09.299Z,3.02
2022-12-18T19:18:36.844Z,3.03
2022-12-18T19:21:05.718Z,3.04
2022-12-18T19:23:34.093Z,3.03
2022-12-18T19:26:26.898Z,3.07
2022-12-18T19:28:51.404Z,3.09
2022-12-18T19:31:24.181Z,3.10
2022-12-18T19:33:51.982Z,3.13
2022-12-18T19:36:21.371Z,3.14
2022-12-18T19:38:49.798Z,3.16
2022-12-18T19:41:17.063Z,3.18
2022-12-18T19:43:45.898Z,3.20
2022-12-18T19:46:16.913Z,3.22
2022-12-18T19:48:44.770Z,3.24
2022-12-18T19:51:17.527Z,3.20
2022-12-18T19:53:44.667Z,3.29
2022-12-18T19:56:14.894Z,3.25
2022-12-18T19:58:41.685Z,3.33
2022-12-18T20:01:16.811Z,3.36
2022-12-18T20:03:48.031Z,3.38
2022-12-18T20:06:30.490Z,3.42
2022-12-18T20:09:00.739Z,3.44
2022-12-18T20:11:29.020Z,3.44
2022-12-18T20:13:55.574Z,3.51
2022-12-18T20:16:23.549Z,3.54
2022-12-18T20:18:50.007Z,3.59
2022-12-18T20:21:20.349Z,3.64
2022-12-18T20:23:46.819Z,3.69
2022-12-18T20:26:15.350Z,3.71
2022-12-18T20:28:41.812Z,3.73
2022-12-18T20:31:10.380Z,3.78
2022-12-18T20:33:40.379Z,3.83
2022-12-18T20:36:10.405Z,3.87
2022-12-18T20:38:37.199Z,3.86
2022-12-18T20:41:07.614Z,3.93
2022-12-18T20:43:34.363Z,3.97
2022-12-18T20:46:02.869Z,3.98
2022-12-18T20:48:30.109Z,4.02
2022-12-18T20:51:17.677Z,4.04
2022-12-18T20:53:45.857Z,4.08
2022-12-18T20:56:20.111Z,4.08
2022-12-18T20:58:51.302Z,4.11
2022-12-18T21:01:22.730Z,4.14
2022-12-18T21:03:50.026Z,4.16
2022-12-18T21:06:19.833Z,4.20
2022-12-18T21:08:46.433Z,4.26
2022-12-18T21:11:21.982Z,4.28
2022-12-18T21:13:49.019Z,4.30
2022-12-18T21:16:15.540Z,4.34
2022-12-18T21:18:42.535Z,4.35
2022-12-18T21:21:08.990Z,4.35
2022-12-18T21:23:35.533Z,4.40
2022-12-18T21:26:34.547Z,4.42
2022-12-18T21:29:03.894Z,4.43
2022-12-18T21:31:34.184Z,4.42
2022-12-18T21:34:02.447Z,4.46
2022-12-18T21:36:29.967Z,4.48
2022-12-18T21:38:57.315Z,4.52
2022-12-18T21:41:25.479Z,4.54
2022-12-18T21:43:52.140Z,4.53
2022-12-18T21:46:18.679Z,4.58
2022-12-18T21:48:45.189Z,4.60
2022-12-18T21:51:11.633Z,4.61
2022-12-18T21:53:38.102Z,4.65
2022-12-18T21:56:04.716Z,4.67
2022-12-18T21:58:31.216Z,4.71
2022-12-18T22:00:57.761Z,4.72
2022-12-18T22:03:24.363Z,4.76
2022-12-18T22:06:08.880Z,4.81
2022-12-18T22:08:36.024Z,4.84
2022-12-18T22:11:06.923Z,4.89
2022-12-18T22:13:33.345Z,4.93
2022-12-18T22:15:59.873Z,4.99
2022-12-18T22:18:26.309Z,5.03
2022-12-18T22:21:04.525Z,5.01
2022-12-18T22:23:31.189Z,5.11
2022-12-18T22:25:58.053Z,5.15
2022-12-18T22:28:24.552Z,5.20
2022-12-18T22:30:51.946Z,5.26
2022-12-18T22:33:25.481Z,5.30
2022-12-18T22:35:51.874Z,5.36
2022-12-18T22:38:18.305Z,5.37
2022-12-18T22:40:44.742Z,5.42
2022-12-18T22:43:11.178Z,5.47
2022-12-18T22:45:38.356Z,5.50
2022-12-18T22:48:05.667Z,5.56
2022-12-18T22:50:32.101Z,5.59
2022-12-18T22:52:58.525Z,5.62
2022-12-18T22:55:24.954Z,5.66
2022-12-18T22:57:51.398Z,5.70
2022-12-18T23:00:19.870Z,5.73
2022-12-18T23:02:55.803Z,5.76
2022-12-18T23:05:26.107Z,5.82
2022-12-18T23:07:52.535Z,5.84
2022-12-18T23:10:19.011Z,5.86
2022-12-18T23:12:45.410Z,5.88
2022-12-18T23:15:12.212Z,5.93
2022-12-18T23:17:39.735Z,5.97
2022-12-18T23:20:06.540Z,6.01
2022-12-18T23:22:32.997Z,6.03
2022-12-18T23:24:59.445Z,6.08
2022-12-18T23:27:25.855Z,6.10
2022-12-18T23:29:52.328Z,6.13
2022-12-18T23:32:20.218Z,6.14
2022-12-18T23:34:46.655Z,6.17
2022-12-18T23:37:18.229Z,6.20
2022-12-18T23:39:51.497Z,6.24
2022-12-18T23:42:17.929Z,6.26
2022-12-18T23:44:45.246Z,6.30
2022-12-18T23:47:11.643Z,6.32
2022-12-18T23:49:38.122Z,6.35
2022-12-18T23:52:07.782Z,6.37
2022-12-18T23:54:34.233Z,6.41
2022-12-18T23:57:00.889Z,6.43
2022-12-18T23:59:27.343Z,6.45
